Metlakatla Seaplane Base

About
Name: Metlakatla Seaplane Base
Identifier:  MTM/PAMM
Serves:  Metlakatla, Alaska
Owner:  Alaska DOT&PF - Southeast Region
Public/Private:  Public
Local Time:  20. Aug 05:39 AKDT
Description: Metlakatla Seaplane Base is a state owned, public use seaplane base located in Metlakatla, a community on Annette Island in the Prince of Wales-Hyder Census Area of the U.S. state of Alaska.
Source: Wikipedia
Location
Runways
Identifier Length (m/ft) Surface
E/W 5,000/5,000 Water
N/S 5,000/5,000 Water
Flights per Day
3 flights
Distance: 26km (16mi)
Punctuality
81% (0 flights per day delayed)
Delay Average: 346 minutes
Current Weather
 12 C (Humidity: 100%)
  7kt (12km/h / 8mph) from 360°
  Overcast at 1,100 feet (335 meter)
  4km (3 mi.)
 Mist
 METAR PAMM 201320Z AUTO 36007KT 3SM +RA BR OVC011 12/12 A2962 RMK AO2 P0017 $

Current Flights

Departures
Number Departure To Airline
Arrivals
Number Arrival From Airline
 K320 16:25 +794  Ketchikan Taquan Air
 K320 16:25  Ketchikan Taquan Air

Current Delays

Departures
N/A
Arrivals
N/A